createdAt,value
2023-03-17T00:00:46.551Z,9.52
2023-03-17T00:03:26.931Z,7.37
2023-03-17T00:05:54.809Z,5.93
2023-03-17T00:08:31.755Z,5.40
2023-03-17T00:11:00.029Z,6.93
2023-03-17T00:13:29.123Z,5.97
2023-03-17T00:16:01.723Z,5.55
2023-03-17T00:18:33.504Z,9.88
2023-03-17T00:21:01.365Z,6.80
2023-03-17T00:23:30.031Z,7.85
2023-03-17T00:25:57.511Z,8.13
2023-03-17T00:28:27.346Z,7.30
2023-03-17T00:30:58.597Z,6.55
2023-03-17T00:33:29.865Z,6.47
2023-03-17T00:35:58.879Z,7.28
2023-03-17T00:38:26.456Z,7.15
2023-03-17T00:40:54.826Z,12.65
2023-03-17T00:43:22.943Z,11.32
2023-03-17T00:45:51.200Z,13.10
2023-03-17T00:48:21.269Z,10.15
2023-03-17T00:50:50.805Z,9.55
2023-03-17T00:53:21.540Z,8.30
2023-03-17T00:55:50.049Z,8.52
2023-03-17T00:58:33.582Z,10.33
2023-03-17T01:01:01.685Z,6.65
2023-03-17T01:03:29.532Z,5.50
2023-03-17T01:05:57.904Z,5.85
2023-03-17T01:08:26.536Z,5.03
2023-03-17T01:10:54.819Z,6.40
2023-03-17T01:13:23.118Z,7.50
2023-03-17T01:15:52.121Z,6.97
2023-03-17T01:18:21.462Z,8.98
2023-03-17T01:20:50.117Z,7.40
2023-03-17T01:23:18.414Z,7.33
2023-03-17T01:25:45.906Z,6.55
2023-03-17T01:28:16.843Z,8.27
2023-03-17T01:30:45.284Z,5.93
2023-03-17T01:33:14.737Z,8.15
2023-03-17T01:35:43.955Z,5.97
2023-03-17T01:38:12.732Z,4.65
2023-03-17T01:40:46.949Z,6.62
2023-03-17T01:43:22.496Z,4.82
2023-03-17T01:46:12.380Z,5.72
2023-03-17T01:48:40.153Z,8.70
2023-03-17T01:51:11.574Z,8.07
2023-03-17T01:53:39.840Z,5.85
2023-03-17T01:56:08.019Z,5.00
2023-03-17T01:58:36.021Z,6.35
2023-03-17T02:01:03.976Z,4.83
2023-03-17T02:03:31.997Z,5.80
2023-03-17T02:06:00.594Z,9.70
2023-03-17T02:08:28.113Z,7.32
2023-03-17T02:10:57.327Z,5.07
2023-03-17T02:13:25.004Z,7.03
2023-03-17T02:15:53.262Z,8.27
2023-03-17T02:18:23.783Z,5.87
2023-03-17T02:20:54.796Z,6.82
2023-03-17T02:23:23.711Z,4.32
2023-03-17T02:25:53.747Z,4.07
2023-03-17T02:28:26.097Z,5.00
2023-03-17T02:30:53.987Z,4.28
2023-03-17T02:33:21.572Z,5.80
2023-03-17T02:35:49.228Z,5.50
2023-03-17T02:38:17.597Z,5.37
2023-03-17T02:40:45.336Z,3.28
2023-03-17T02:43:12.858Z,6.50
2023-03-17T02:45:41.768Z,4.82
2023-03-17T02:48:12.314Z,6.62
2023-03-17T02:50:39.713Z,6.30
2023-03-17T02:53:08.246Z,5.00
2023-03-17T02:55:35.718Z,4.10
2023-03-17T02:58:03.484Z,6.97
2023-03-17T03:00:31.610Z,7.85
2023-03-17T03:02:59.340Z,5.73
2023-03-17T03:05:27.125Z,4.35
2023-03-17T03:07:55.312Z,4.28
2023-03-17T03:10:22.886Z,2.95
2023-03-17T03:12:50.887Z,3.50
2023-03-17T03:15:19.657Z,4.33
2023-03-17T03:17:47.305Z,7.20
2023-03-17T03:20:14.857Z,5.40
2023-03-17T03:22:42.710Z,4.00
2023-03-17T03:25:10.267Z,6.37
2023-03-17T03:27:37.787Z,4.80
2023-03-17T03:30:08.059Z,7.25
2023-03-17T03:32:35.589Z,6.93
2023-03-17T03:35:04.405Z,5.10
2023-03-17T03:37:32.268Z,5.50
2023-03-17T03:39:59.973Z,5.10
2023-03-17T03:42:27.525Z,3.75
2023-03-17T03:44:55.372Z,3.65
2023-03-17T03:47:22.879Z,9.93
2023-03-17T03:49:50.746Z,5.57
2023-03-17T03:52:18.526Z,2.00
2023-03-17T03:54:46.061Z,4.03
2023-03-17T03:57:13.546Z,7.25
2023-03-17T03:59:41.409Z,4.78
2023-03-17T04:02:09.724Z,3.22
2023-03-17T04:04:37.767Z,4.33
2023-03-17T04:07:05.918Z,4.57
2023-03-17T04:09:33.471Z,5.87
2023-03-17T04:12:01.352Z,5.78
2023-03-17T04:14:28.918Z,4.35
2023-03-17T04:16:56.445Z,3.63
2023-03-17T04:19:24.236Z,5.55
2023-03-17T04:21:53.703Z,4.37
2023-03-17T04:24:22.213Z,6.55
2023-03-17T04:26:50.039Z,5.18
2023-03-17T04:29:17.587Z,3.70
2023-03-17T04:31:45.135Z,5.43
2023-03-17T04:34:17.519Z,5.57
2023-03-17T04:36:46.694Z,4.87
2023-03-17T04:39:15.800Z,7.47
2023-03-17T04:41:43.273Z,5.57
2023-03-17T04:44:10.790Z,5.35
2023-03-17T04:46:38.865Z,7.85
2023-03-17T04:49:07.061Z,5.35
2023-03-17T04:51:36.817Z,2.85
2023-03-17T04:54:06.139Z,3.17
2023-03-17T04:56:33.750Z,5.72
2023-03-17T04:59:01.253Z,3.33
2023-03-17T05:01:29.156Z,3.50
2023-03-17T05:03:57.050Z,3.75
2023-03-17T05:06:24.726Z,4.23
2023-03-17T05:08:53.001Z,4.15
2023-03-17T05:11:20.595Z,3.25
2023-03-17T05:13:48.073Z,4.30
2023-03-17T05:16:16.354Z,3.70
2023-03-17T05:18:44.018Z,4.20
2023-03-17T05:21:11.527Z,4.40
2023-03-17T05:23:40.266Z,4.62
2023-03-17T05:26:08.242Z,4.20
2023-03-17T05:28:35.826Z,4.47
2023-03-17T05:31:03.779Z,2.40
2023-03-17T05:33:31.499Z,8.95
2023-03-17T05:35:59.047Z,4.50
2023-03-17T05:38:26.920Z,2.53
2023-03-17T05:40:54.550Z,2.72
2023-03-17T05:43:22.130Z,4.67
2023-03-17T05:45:50.743Z,6.57
2023-03-17T05:48:18.267Z,1.92
2023-03-17T05:50:46.020Z,4.78
2023-03-17T05:53:14.006Z,5.00
2023-03-17T05:55:42.373Z,6.80
2023-03-17T05:58:09.930Z,2.35
2023-03-17T06:00:37.858Z,4.57
2023-03-17T06:03:05.757Z,4.50
2023-03-17T06:05:34.641Z,7.45
2023-03-17T06:08:02.309Z,3.07
2023-03-17T06:10:30.361Z,5.03
2023-03-17T06:12:58.992Z,5.18
2023-03-17T06:15:26.622Z,7.45
2023-03-17T06:17:54.978Z,6.90
2023-03-17T06:20:22.444Z,7.60
2023-03-17T06:23:03.294Z,7.50
2023-03-17T06:25:31.792Z,6.03
2023-03-17T06:28:02.561Z,7.30
2023-03-17T06:30:31.460Z,6.93
2023-03-17T06:33:00.312Z,6.80
2023-03-17T06:35:28.772Z,7.95
2023-03-17T06:37:56.451Z,7.00
2023-03-17T06:40:24.488Z,8.93
2023-03-17T06:42:53.281Z,9.13
2023-03-17T06:45:20.871Z,10.43
2023-03-17T06:47:48.660Z,11.07
2023-03-17T06:50:16.804Z,11.30
2023-03-17T06:52:46.651Z,11.12
2023-03-17T06:55:15.324Z,7.70
2023-03-17T06:57:43.270Z,4.77
2023-03-17T07:00:14.116Z,8.00
2023-03-17T07:02:43.124Z,9.52
2023-03-17T07:05:10.720Z,4.47
2023-03-17T07:07:38.829Z,5.60
2023-03-17T07:10:07.434Z,5.27
2023-03-17T07:12:34.937Z,5.12
2023-03-17T07:15:02.491Z,2.60
2023-03-17T07:17:30.298Z,5.22
2023-03-17T07:19:57.808Z,5.35
2023-03-17T07:22:25.307Z,4.37
2023-03-17T07:24:53.368Z,7.28
2023-03-17T07:27:23.042Z,6.97
2023-03-17T07:29:51.376Z,3.92
2023-03-17T07:32:20.095Z,3.33
2023-03-17T07:34:47.660Z,6.13
2023-03-17T07:37:15.457Z,4.43
2023-03-17T07:39:44.457Z,3.78
2023-03-17T07:42:15.423Z,6.12
2023-03-17T07:44:44.440Z,3.72
2023-03-17T07:47:12.238Z,2.90
2023-03-17T07:49:42.035Z,4.03
2023-03-17T07:52:11.194Z,5.28
2023-03-17T07:54:41.537Z,5.30
2023-03-17T07:57:11.635Z,5.37
2023-03-17T07:59:40.112Z,4.47
2023-03-17T08:02:08.460Z,3.92
2023-03-17T08:04:36.468Z,5.10
2023-03-17T08:07:06.336Z,4.95
2023-03-17T08:09:34.039Z,5.53
2023-03-17T08:12:01.922Z,2.80
2023-03-17T08:14:30.250Z,3.72
2023-03-17T08:16:57.832Z,3.87
2023-03-17T08:19:25.770Z,5.37
2023-03-17T08:21:53.237Z,6.10
2023-03-17T08:24:20.992Z,2.00
2023-03-17T08:26:49.715Z,3.80
2023-03-17T08:29:17.240Z,8.50
2023-03-17T08:31:46.626Z,2.95
2023-03-17T08:34:16.290Z,4.97
2023-03-17T08:36:43.998Z,3.60
2023-03-17T08:39:11.581Z,3.33
2023-03-17T08:41:39.572Z,3.33
2023-03-17T08:44:08.879Z,2.42
2023-03-17T08:46:37.483Z,3.70
2023-03-17T08:49:05.378Z,3.50
2023-03-17T08:51:35.801Z,4.85
2023-03-17T08:54:04.446Z,2.97
2023-03-17T08:56:32.566Z,3.55
2023-03-17T08:59:00.348Z,3.70
2023-03-17T09:01:28.416Z,3.67
2023-03-17T09:03:56.645Z,4.68
2023-03-17T09:06:25.579Z,5.18
2023-03-17T09:08:55.677Z,4.87
2023-03-17T09:11:29.254Z,5.90
2023-03-17T09:13:56.838Z,2.73
2023-03-17T09:16:25.290Z,3.55
2023-03-17T09:18:53.554Z,6.68
2023-03-17T09:21:21.423Z,5.37
2023-03-17T09:23:49.513Z,4.40
2023-03-17T09:26:17.507Z,4.03
2023-03-17T09:28:45.115Z,2.70
2023-03-17T09:31:13.225Z,3.78
2023-03-17T09:33:41.875Z,3.10
2023-03-17T09:36:12.185Z,3.20
2023-03-17T09:38:40.071Z,3.67
2023-03-17T09:41:16.612Z,4.40
2023-03-17T09:44:22.223Z,4.62
2023-03-17T09:47:12.356Z,4.82
2023-03-17T09:49:56.189Z,4.25
2023-03-17T09:52:29.235Z,4.30
2023-03-17T09:54:58.328Z,3.78
2023-03-17T09:57:46.178Z,5.03
2023-03-17T10:00:20.780Z,3.58
2023-03-17T10:02:48.921Z,3.53
2023-03-17T10:05:23.250Z,4.03
2023-03-17T10:08:30.072Z,2.60
2023-03-17T10:11:13.432Z,4.60
2023-03-17T10:14:08.451Z,4.85
2023-03-17T10:16:42.575Z,4.97
2023-03-17T10:19:16.538Z,5.03
2023-03-17T10:21:59.086Z,5.07
2023-03-17T10:24:30.850Z,4.20
2023-03-17T10:27:04.797Z,5.22
2023-03-17T10:29:32.755Z,3.75
2023-03-17T10:32:00.455Z,5.33
2023-03-17T10:34:31.083Z,4.85
2023-03-17T10:37:13.173Z,9.13
2023-03-17T10:39:52.737Z,3.67
2023-03-17T10:42:26.848Z,4.37
2023-03-17T10:44:59.378Z,2.43
2023-03-17T10:47:31.818Z,5.12
2023-03-17T10:50:17.043Z,3.67
2023-03-17T10:52:49.647Z,5.03
2023-03-17T10:55:22.264Z,4.87
2023-03-17T10:57:56.152Z,4.97
2023-03-17T11:00:24.715Z,5.28
2023-03-17T11:02:58.444Z,2.70
2023-03-17T11:05:29.112Z,4.30
2023-03-17T11:08:05.920Z,5.32
2023-03-17T11:10:37.734Z,4.03
2023-03-17T11:13:05.647Z,4.20
2023-03-17T11:15:43.863Z,4.93
2023-03-17T11:18:23.818Z,3.12
2023-03-17T11:20:51.373Z,3.85
2023-03-17T11:23:19.363Z,4.30
2023-03-17T11:25:53.150Z,4.32
2023-03-17T11:28:25.038Z,4.40
2023-03-17T11:31:16.258Z,3.58
2023-03-17T11:34:00.229Z,4.93
2023-03-17T11:37:14.826Z,5.40
2023-03-17T11:40:07.778Z,3.97
2023-03-17T11:42:47.449Z,5.35
2023-03-17T11:45:29.122Z,4.00
2023-03-17T11:48:15.064Z,3.92
2023-03-17T11:50:51.929Z,4.27
2023-03-17T11:53:39.581Z,5.05
2023-03-17T11:56:15.732Z,5.80
2023-03-17T11:58:46.758Z,3.90
2023-03-17T12:01:21.604Z,4.37
2023-03-17T12:04:18.990Z,4.90
2023-03-17T12:06:52.455Z,4.00
2023-03-17T12:09:30.860Z,3.78
2023-03-17T12:12:01.465Z,3.33
2023-03-17T12:14:32.689Z,2.87
2023-03-17T12:17:06.533Z,4.30
2023-03-17T12:19:45.031Z,4.35
2023-03-17T12:22:26.334Z,6.47
2023-03-17T12:25:32.770Z,5.50
2023-03-17T12:28:23.024Z,3.78
2023-03-17T12:30:56.046Z,2.60
2023-03-17T12:33:48.714Z,3.40
2023-03-17T12:36:18.434Z,3.05
2023-03-17T12:39:10.245Z,4.05
2023-03-17T12:42:01.736Z,3.83
2023-03-17T12:44:50.182Z,3.13
2023-03-17T12:47:45.571Z,3.22
2023-03-17T12:50:33.166Z,5.70
2023-03-17T12:53:11.431Z,4.30
2023-03-17T12:55:39.582Z,4.55
2023-03-17T12:58:37.763Z,6.07
2023-03-17T13:01:15.036Z,3.53
2023-03-17T13:03:57.676Z,3.15
2023-03-17T13:06:25.511Z,3.42
2023-03-17T13:08:53.591Z,3.78
2023-03-17T13:11:40.664Z,2.90
2023-03-17T13:14:27.179Z,3.17
2023-03-17T13:17:27.634Z,3.85
2023-03-17T13:20:07.616Z,3.28
2023-03-17T13:22:41.257Z,5.40
2023-03-17T13:25:30.636Z,3.87
2023-03-17T13:28:13.760Z,4.97
2023-03-17T13:30:54.210Z,4.40
2023-03-17T13:33:27.343Z,4.75
2023-03-17T13:36:14.395Z,2.60
2023-03-17T13:38:52.475Z,3.03
2023-03-17T13:41:35.656Z,2.95
2023-03-17T13:44:22.510Z,3.53
2023-03-17T13:46:50.403Z,5.10
2023-03-17T13:49:24.565Z,3.42
2023-03-17T13:52:12.523Z,3.80
2023-03-17T13:54:59.707Z,3.33
2023-03-17T13:57:34.571Z,4.15
2023-03-17T14:00:05.876Z,3.55
2023-03-17T14:02:38.633Z,4.72
2023-03-17T14:05:15.878Z,3.77
2023-03-17T14:07:56.834Z,2.72
2023-03-17T14:10:28.180Z,3.40
2023-03-17T14:13:39.283Z,2.75
2023-03-17T14:16:32.161Z,6.25
2023-03-17T14:19:11.208Z,3.87
2023-03-17T14:21:38.676Z,6.18
2023-03-17T14:24:29.929Z,4.15
2023-03-17T14:26:57.587Z,2.87
2023-03-17T14:29:31.458Z,4.60
2023-03-17T14:32:10.997Z,4.77
2023-03-17T14:34:57.761Z,5.30
2023-03-17T14:37:27.027Z,6.12
2023-03-17T14:39:57.742Z,4.90
2023-03-17T14:42:27.986Z,4.70
2023-03-17T14:45:03.834Z,5.20
2023-03-17T14:47:38.911Z,6.87
2023-03-17T14:50:18.351Z,3.75
2023-03-17T14:52:45.961Z,4.90
2023-03-17T14:55:16.289Z,3.37
2023-03-17T14:57:49.786Z,3.73
2023-03-17T15:00:27.052Z,5.22
2023-03-17T15:02:59.444Z,4.62
2023-03-17T15:05:36.450Z,4.45
2023-03-17T15:08:38.306Z,3.60
2023-03-17T15:11:07.900Z,2.83
2023-03-17T15:13:37.904Z,3.80
2023-03-17T15:16:25.029Z,4.85
2023-03-17T15:19:04.669Z,3.65
2023-03-17T15:21:41.208Z,4.00
2023-03-17T15:24:23.952Z,2.70
2023-03-17T15:27:14.306Z,4.47
2023-03-17T15:29:41.834Z,3.97
2023-03-17T15:32:11.902Z,5.40
2023-03-17T15:34:39.871Z,3.50
2023-03-17T15:37:15.915Z,2.60
2023-03-17T15:39:43.794Z,4.15
2023-03-17T15:42:11.672Z,3.53
2023-03-17T15:44:39.136Z,6.10
2023-03-17T15:47:07.079Z,3.55
2023-03-17T15:49:35.238Z,5.33
2023-03-17T15:52:02.938Z,5.72
2023-03-17T15:54:30.772Z,3.22
2023-03-17T15:56:58.262Z,3.58
2023-03-17T15:59:25.725Z,5.80
2023-03-17T16:01:53.641Z,2.93
2023-03-17T16:04:21.552Z,3.50
2023-03-17T16:06:49.235Z,3.10
2023-03-17T16:09:17.723Z,4.62
2023-03-17T16:11:45.872Z,3.85
2023-03-17T16:14:13.545Z,6.10
2023-03-17T16:16:43.633Z,5.40
2023-03-17T16:19:20.156Z,7.47
2023-03-17T16:21:48.399Z,4.85
2023-03-17T16:24:20.088Z,4.97
2023-03-17T16:26:47.702Z,3.83
2023-03-17T16:29:16.219Z,3.45
2023-03-17T16:31:48.987Z,3.95
2023-03-17T16:34:22.119Z,4.35
2023-03-17T16:36:50.641Z,2.92
2023-03-17T16:39:22.993Z,4.30
2023-03-17T16:41:51.662Z,2.80
2023-03-17T16:44:21.302Z,6.40
2023-03-17T16:46:51.001Z,3.40
2023-03-17T16:49:23.336Z,2.85
2023-03-17T16:51:51.273Z,3.50
2023-03-17T16:54:18.893Z,3.80
2023-03-17T16:56:46.763Z,5.50
2023-03-17T16:59:21.663Z,4.68
2023-03-17T17:01:49.822Z,4.20
2023-03-17T17:04:17.412Z,2.60
2023-03-17T17:06:44.927Z,2.40
2023-03-17T17:09:12.746Z,3.58
2023-03-17T17:11:40.257Z,5.47
2023-03-17T17:14:07.809Z,5.35
2023-03-17T17:16:37.823Z,3.83
2023-03-17T17:19:20.975Z,6.03
2023-03-17T17:21:48.886Z,4.22
2023-03-17T17:24:16.474Z,5.50
2023-03-17T17:26:44.049Z,4.07
2023-03-17T17:29:12.327Z,4.03
2023-03-17T17:31:39.943Z,4.32
2023-03-17T17:34:07.441Z,5.90
2023-03-17T17:36:35.343Z,3.92
2023-03-17T17:39:03.310Z,5.03
2023-03-17T17:41:32.541Z,3.17
2023-03-17T17:44:00.535Z,3.67
2023-03-17T17:46:28.077Z,2.97
2023-03-17T17:48:56.299Z,2.58
2023-03-17T17:51:24.126Z,3.60
2023-03-17T17:53:51.886Z,5.13
2023-03-17T17:56:19.617Z,7.80
2023-03-17T17:58:47.610Z,6.22
2023-03-17T18:01:19.879Z,7.85
2023-03-17T18:03:48.413Z,8.45
2023-03-17T18:06:17.420Z,10.50
2023-03-17T18:08:45.137Z,7.97
2023-03-17T18:11:13.546Z,9.88
2023-03-17T18:13:41.251Z,7.62
2023-03-17T18:16:12.413Z,7.47
2023-03-17T18:18:42.449Z,9.33
2023-03-17T18:21:10.268Z,8.75
2023-03-17T18:23:38.590Z,9.38
2023-03-17T18:26:06.425Z,9.65
2023-03-17T18:28:34.192Z,8.98
2023-03-17T18:31:17.766Z,8.30
2023-03-17T18:33:47.485Z,12.18
2023-03-17T18:36:15.127Z,11.23
2023-03-17T18:38:42.639Z,10.70
2023-03-17T18:41:11.175Z,11.95
2023-03-17T18:43:41.291Z,10.57
2023-03-17T18:46:08.963Z,8.77
2023-03-17T18:48:36.863Z,8.43
2023-03-17T18:51:04.900Z,6.32
2023-03-17T18:53:34.636Z,9.77
2023-03-17T18:56:02.969Z,6.73
2023-03-17T18:58:31.126Z,7.87
2023-03-17T19:01:00.238Z,10.70
2023-03-17T19:03:29.051Z,8.38
2023-03-17T19:05:56.840Z,9.57
2023-03-17T19:08:24.789Z,7.73
2023-03-17T19:10:52.709Z,11.10
2023-03-17T19:13:20.247Z,9.48
2023-03-17T19:15:48.038Z,12.75
2023-03-17T19:18:16.236Z,8.63
2023-03-17T19:20:43.743Z,9.27
2023-03-17T19:23:11.515Z,9.98
2023-03-17T19:25:39.280Z,9.80
2023-03-17T19:28:07.221Z,8.38
2023-03-17T19:30:35.237Z,7.95
2023-03-17T19:33:03.400Z,10.40
2023-03-17T19:35:30.930Z,8.93
2023-03-17T19:37:58.546Z,7.60
2023-03-17T19:40:26.360Z,8.60
2023-03-17T19:42:53.906Z,10.02
2023-03-17T19:45:21.702Z,10.50
2023-03-17T19:47:49.521Z,26.85
2023-03-17T19:50:17.361Z,11.73
2023-03-17T19:52:46.277Z,12.07
2023-03-17T19:55:14.460Z,13.10
2023-03-17T19:57:42.140Z,11.00
2023-03-17T20:00:11.852Z,8.45
2023-03-17T20:02:39.791Z,9.70
2023-03-17T20:05:07.824Z,9.63
2023-03-17T20:07:36.045Z,9.93
2023-03-17T20:10:06.610Z,9.97
2023-03-17T20:12:37.519Z,9.45
2023-03-17T20:15:07.813Z,11.55
2023-03-17T20:17:36.212Z,9.13
2023-03-17T20:20:04.213Z,9.07
2023-03-17T20:22:32.480Z,14.93
2023-03-17T20:25:00.102Z,8.60
2023-03-17T20:27:27.957Z,8.35
2023-03-17T20:29:56.785Z,9.10
2023-03-17T20:32:24.255Z,11.15
2023-03-17T20:34:51.704Z,9.70
2023-03-17T20:37:19.892Z,11.38
2023-03-17T20:39:47.468Z,9.95
2023-03-17T20:42:14.963Z,10.48
2023-03-17T20:44:43.183Z,9.63
2023-03-17T20:47:11.418Z,10.93
2023-03-17T20:49:39.327Z,8.25
2023-03-17T20:52:08.694Z,9.70
2023-03-17T20:54:36.154Z,9.27
2023-03-17T20:57:04.865Z,8.88
2023-03-17T20:59:34.460Z,12.57
2023-03-17T21:02:02.496Z,10.48
2023-03-17T21:04:30.096Z,11.98
2023-03-17T21:06:58.295Z,9.48
2023-03-17T21:09:25.789Z,9.57
2023-03-17T21:11:53.296Z,8.90
2023-03-17T21:14:21.434Z,9.40
2023-03-17T21:16:48.988Z,8.90
2023-03-17T21:19:17.252Z,8.45
2023-03-17T21:21:45.734Z,9.25
2023-03-17T21:24:31.205Z,9.30
2023-03-17T21:27:00.914Z,12.82
2023-03-17T21:29:30.366Z,9.25
2023-03-17T21:31:58.305Z,9.75
2023-03-17T21:34:27.220Z,8.82
2023-03-17T21:36:55.435Z,9.03
2023-03-17T21:39:23.697Z,9.13
2023-03-17T21:41:51.602Z,9.85
2023-03-17T21:44:19.427Z,10.35
2023-03-17T21:46:48.454Z,8.73
2023-03-17T21:49:17.152Z,11.50
2023-03-17T21:51:46.534Z,11.93
2023-03-17T21:54:14.710Z,7.95
2023-03-17T21:56:42.708Z,12.77
2023-03-17T21:59:11.168Z,12.50
2023-03-17T22:01:39.784Z,10.13
2023-03-17T22:04:08.437Z,13.55
2023-03-17T22:06:36.094Z,10.82
2023-03-17T22:09:04.464Z,9.48
2023-03-17T22:11:32.502Z,11.50
2023-03-17T22:14:00.115Z,9.00
2023-03-17T22:16:27.727Z,11.02
2023-03-17T22:18:55.717Z,10.23
2023-03-17T22:21:23.689Z,10.65
2023-03-17T22:23:51.800Z,9.52
2023-03-17T22:26:21.672Z,8.17
2023-03-17T22:28:50.277Z,8.50
2023-03-17T22:31:21.331Z,11.32
2023-03-17T22:33:52.348Z,9.05
2023-03-17T22:36:20.046Z,8.02
2023-03-17T22:38:47.717Z,7.97
2023-03-17T22:41:19.190Z,8.32
2023-03-17T22:43:47.235Z,9.93
2023-03-17T22:46:15.933Z,7.72
2023-03-17T22:48:44.009Z,10.40
2023-03-17T22:51:14.284Z,7.27
2023-03-17T22:53:42.106Z,7.37
2023-03-17T22:56:11.758Z,5.90
2023-03-17T22:58:40.515Z,9.07
2023-03-17T23:01:09.480Z,7.40
2023-03-17T23:03:37.181Z,8.13
2023-03-17T23:06:06.152Z,7.70
2023-03-17T23:08:36.149Z,6.65
2023-03-17T23:11:07.091Z,7.32
2023-03-17T23:13:35.616Z,6.70
2023-03-17T23:16:04.803Z,7.20
2023-03-17T23:18:32.522Z,7.68
2023-03-17T23:21:02.541Z,8.18
2023-03-17T23:23:30.313Z,7.47
2023-03-17T23:25:57.905Z,7.65
2023-03-17T23:28:26.637Z,10.17
2023-03-17T23:30:54.596Z,8.23
2023-03-17T23:33:24.063Z,6.30
2023-03-17T23:35:52.471Z,6.20
2023-03-17T23:38:21.475Z,5.45
2023-03-17T23:40:49.804Z,9.63
2023-03-17T23:43:18.146Z,7.40
2023-03-17T23:45:45.689Z,7.28
2023-03-17T23:48:13.263Z,6.22
2023-03-17T23:50:42.443Z,7.00
2023-03-17T23:53:11.593Z,7.93
2023-03-17T23:55:40.110Z,6.93
2023-03-17T23:58:07.865Z,7.57
